sensor_id;sensor_type;location;lat;lon;timestamp;P1;durP1;ratioP1;P2;durP2;ratioP2
6864;SDS011;3471;49.678;8.388;2022-12-07T00:02:01;5.37;;;4.13;;
6864;SDS011;3471;49.678;8.388;2022-12-07T00:04:26;6.82;;;4.82;;
6864;SDS011;3471;49.678;8.388;2022-12-07T00:06:52;6.50;;;5.60;;
6864;SDS011;3471;49.678;8.388;2022-12-07T00:09:18;5.63;;;4.93;;
6864;SDS011;3471;49.678;8.388;2022-12-07T00:11:44;5.90;;;4.75;;
6864;SDS011;3471;49.678;8.388;2022-12-07T00:14:14;11.13;;;4.43;;
6864;SDS011;3471;49.678;8.388;2022-12-07T00:16:41;6.43;;;5.57;;
6864;SDS011;3471;49.678;8.388;2022-12-07T00:19:09;6.57;;;4.50;;
6864;SDS011;3471;49.678;8.388;2022-12-07T00:21:36;6.72;;;5.60;;
6864;SDS011;3471;49.678;8.388;2022-12-07T00:24:02;6.10;;;3.63;;
6864;SDS011;3471;49.678;8.388;2022-12-07T00:26:36;7.93;;;5.67;;
6864;SDS011;3471;49.678;8.388;2022-12-07T00:29:07;12.48;;;7.55;;
6864;SDS011;3471;49.678;8.388;2022-12-07T00:31:50;6.20;;;4.93;;
6864;SDS011;3471;49.678;8.388;2022-12-07T00:34:17;7.17;;;5.80;;
6864;SDS011;3471;49.678;8.388;2022-12-07T00:36:45;7.20;;;5.60;;
6864;SDS011;3471;49.678;8.388;2022-12-07T00:39:10;6.57;;;5.47;;
6864;SDS011;3471;49.678;8.388;2022-12-07T00:41:36;7.80;;;7.05;;
6864;SDS011;3471;49.678;8.388;2022-12-07T00:44:02;6.40;;;5.40;;
6864;SDS011;3471;49.678;8.388;2022-12-07T00:46:27;16.13;;;6.50;;
6864;SDS011;3471;49.678;8.388;2022-12-07T00:48:54;8.93;;;6.47;;
6864;SDS011;3471;49.678;8.388;2022-12-07T00:51:21;9.27;;;6.38;;
6864;SDS011;3471;49.678;8.388;2022-12-07T00:53:48;6.55;;;5.40;;
6864;SDS011;3471;49.678;8.388;2022-12-07T00:56:18;13.20;;;5.90;;
6864;SDS011;3471;49.678;8.388;2022-12-07T00:58:49;6.80;;;4.90;;
6864;SDS011;3471;49.678;8.388;2022-12-07T01:01:18;10.53;;;5.77;;
6864;SDS011;3471;49.678;8.388;2022-12-07T01:03:44;6.93;;;5.85;;
6864;SDS011;3471;49.678;8.388;2022-12-07T01:06:09;9.23;;;6.37;;
6864;SDS011;3471;49.678;8.388;2022-12-07T01:08:40;5.22;;;4.88;;
6864;SDS011;3471;49.678;8.388;2022-12-07T01:11:06;7.03;;;4.43;;
6864;SDS011;3471;49.678;8.388;2022-12-07T01:13:34;5.50;;;4.03;;
6864;SDS011;3471;49.678;8.388;2022-12-07T01:16:01;6.80;;;4.47;;
6864;SDS011;3471;49.678;8.388;2022-12-07T01:18:28;8.48;;;5.20;;
6864;SDS011;3471;49.678;8.388;2022-12-07T01:20:58;9.73;;;6.28;;
6864;SDS011;3471;49.678;8.388;2022-12-07T01:23:24;8.88;;;5.40;;
6864;SDS011;3471;49.678;8.388;2022-12-07T01:25:56;6.80;;;4.22;;
6864;SDS011;3471;49.678;8.388;2022-12-07T01:28:23;8.57;;;6.47;;
6864;SDS011;3471;49.678;8.388;2022-12-07T01:31:22;7.20;;;4.85;;
6864;SDS011;3471;49.678;8.388;2022-12-07T01:33:46;7.68;;;6.18;;
6864;SDS011;3471;49.678;8.388;2022-12-07T01:38:47;3.78;;;3.47;;
6864;SDS011;3471;49.678;8.388;2022-12-07T01:41:14;13.73;;;7.00;;
6864;SDS011;3471;49.678;8.388;2022-12-07T01:46:41;14.27;;;5.40;;
6864;SDS011;3471;49.678;8.388;2022-12-07T01:49:10;7.82;;;4.75;;
6864;SDS011;3471;49.678;8.388;2022-12-07T01:51:42;7.22;;;5.88;;
6864;SDS011;3471;49.678;8.388;2022-12-07T01:54:09;9.02;;;6.38;;
6864;SDS011;3471;49.678;8.388;2022-12-07T01:56:37;9.98;;;5.93;;
6864;SDS011;3471;49.678;8.388;2022-12-07T01:59:07;5.22;;;4.32;;
6864;SDS011;3471;49.678;8.388;2022-12-07T02:01:33;6.07;;;4.65;;
6864;SDS011;3471;49.678;8.388;2022-12-07T02:03:59;7.63;;;5.57;;
6864;SDS011;3471;49.678;8.388;2022-12-07T02:06:24;8.15;;;7.10;;
6864;SDS011;3471;49.678;8.388;2022-12-07T02:08:51;6.47;;;4.72;;
6864;SDS011;3471;49.678;8.388;2022-12-07T02:11:18;7.68;;;4.82;;
6864;SDS011;3471;49.678;8.388;2022-12-07T02:13:45;6.95;;;5.80;;
6864;SDS011;3471;49.678;8.388;2022-12-07T02:16:17;9.65;;;6.25;;
6864;SDS011;3471;49.678;8.388;2022-12-07T02:21:39;9.73;;;5.83;;
6864;SDS011;3471;49.678;8.388;2022-12-07T02:27:34;13.60;;;5.75;;
6864;SDS011;3471;49.678;8.388;2022-12-07T02:30:16;12.27;;;5.33;;
6864;SDS011;3471;49.678;8.388;2022-12-07T02:32:48;7.18;;;5.50;;
6864;SDS011;3471;49.678;8.388;2022-12-07T02:38:25;6.50;;;5.90;;
6864;SDS011;3471;49.678;8.388;2022-12-07T02:41:04;8.57;;;5.10;;
6864;SDS011;3471;49.678;8.388;2022-12-07T02:43:35;10.50;;;5.35;;
6864;SDS011;3471;49.678;8.388;2022-12-07T02:46:08;6.57;;;5.95;;
6864;SDS011;3471;49.678;8.388;2022-12-07T02:48:37;7.13;;;4.97;;
6864;SDS011;3471;49.678;8.388;2022-12-07T02:51:04;8.02;;;6.80;;
6864;SDS011;3471;49.678;8.388;2022-12-07T02:53:34;6.32;;;5.07;;
6864;SDS011;3471;49.678;8.388;2022-12-07T02:59:00;9.02;;;5.55;;
6864;SDS011;3471;49.678;8.388;2022-12-07T03:04:46;7.95;;;5.35;;
6864;SDS011;3471;49.678;8.388;2022-12-07T03:12:38;6.30;;;5.07;;
6864;SDS011;3471;49.678;8.388;2022-12-07T03:15:54;6.90;;;5.53;;
6864;SDS011;3471;49.678;8.388;2022-12-07T03:18:09;8.25;;;6.35;;
6864;SDS011;3471;49.678;8.388;2022-12-07T03:20:37;8.93;;;6.75;;
6864;SDS011;3471;49.678;8.388;2022-12-07T03:23:06;8.18;;;6.38;;
6864;SDS011;3471;49.678;8.388;2022-12-07T03:25:35;12.10;;;7.10;;
6864;SDS011;3471;49.678;8.388;2022-12-07T03:28:05;13.80;;;6.20;;
6864;SDS011;3471;49.678;8.388;2022-12-07T03:30:42;7.32;;;6.40;;
6864;SDS011;3471;49.678;8.388;2022-12-07T03:33:13;15.23;;;6.40;;
6864;SDS011;3471;49.678;8.388;2022-12-07T03:36:08;7.72;;;6.32;;
6864;SDS011;3471;49.678;8.388;2022-12-07T03:38:41;5.63;;;4.72;;
6864;SDS011;3471;49.678;8.388;2022-12-07T03:41:14;11.70;;;6.65;;
6864;SDS011;3471;49.678;8.388;2022-12-07T03:43:47;6.53;;;5.93;;
6864;SDS011;3471;49.678;8.388;2022-12-07T03:49:08;9.80;;;4.63;;
6864;SDS011;3471;49.678;8.388;2022-12-07T03:54:13;15.07;;;7.73;;
6864;SDS011;3471;49.678;8.388;2022-12-07T03:56:54;9.00;;;4.68;;
6864;SDS011;3471;49.678;8.388;2022-12-07T03:59:22;6.38;;;5.78;;
6864;SDS011;3471;49.678;8.388;2022-12-07T04:01:52;8.88;;;5.65;;
6864;SDS011;3471;49.678;8.388;2022-12-07T04:04:20;6.70;;;5.50;;
6864;SDS011;3471;49.678;8.388;2022-12-07T04:06:46;5.87;;;5.37;;
6864;SDS011;3471;49.678;8.388;2022-12-07T04:09:12;5.65;;;5.15;;
6864;SDS011;3471;49.678;8.388;2022-12-07T04:11:39;6.50;;;5.90;;
6864;SDS011;3471;49.678;8.388;2022-12-07T04:14:05;7.67;;;6.00;;
6864;SDS011;3471;49.678;8.388;2022-12-07T04:16:46;9.75;;;5.65;;
6864;SDS011;3471;49.678;8.388;2022-12-07T04:19:14;7.28;;;4.93;;
6864;SDS011;3471;49.678;8.388;2022-12-07T04:21:41;8.67;;;6.20;;
6864;SDS011;3471;49.678;8.388;2022-12-07T04:24:07;13.30;;;5.43;;
6864;SDS011;3471;49.678;8.388;2022-12-07T04:26:32;7.43;;;5.70;;
6864;SDS011;3471;49.678;8.388;2022-12-07T04:28:58;6.70;;;5.40;;
6864;SDS011;3471;49.678;8.388;2022-12-07T04:31:24;8.50;;;5.75;;
6864;SDS011;3471;49.678;8.388;2022-12-07T04:33:49;8.27;;;5.67;;
6864;SDS011;3471;49.678;8.388;2022-12-07T04:36:15;10.68;;;6.72;;
6864;SDS011;3471;49.678;8.388;2022-12-07T04:38:41;8.00;;;6.57;;
6864;SDS011;3471;49.678;8.388;2022-12-07T04:41:07;11.10;;;5.40;;
6864;SDS011;3471;49.678;8.388;2022-12-07T04:43:33;9.77;;;6.70;;
6864;SDS011;3471;49.678;8.388;2022-12-07T04:46:00;7.70;;;5.07;;
6864;SDS011;3471;49.678;8.388;2022-12-07T04:48:26;6.15;;;4.70;;
6864;SDS011;3471;49.678;8.388;2022-12-07T04:50:52;15.35;;;6.20;;
6864;SDS011;3471;49.678;8.388;2022-12-07T04:53:17;12.13;;;6.83;;
6864;SDS011;3471;49.678;8.388;2022-12-07T04:55:44;8.77;;;5.88;;
6864;SDS011;3471;49.678;8.388;2022-12-07T04:58:10;8.30;;;4.65;;
6864;SDS011;3471;49.678;8.388;2022-12-07T05:00:36;9.52;;;5.97;;
6864;SDS011;3471;49.678;8.388;2022-12-07T05:03:02;6.57;;;5.23;;
6864;SDS011;3471;49.678;8.388;2022-12-07T05:05:27;12.45;;;5.20;;
6864;SDS011;3471;49.678;8.388;2022-12-07T05:07:53;7.90;;;5.97;;
6864;SDS011;3471;49.678;8.388;2022-12-07T05:10:19;11.07;;;6.60;;
6864;SDS011;3471;49.678;8.388;2022-12-07T05:12:44;6.87;;;5.70;;
6864;SDS011;3471;49.678;8.388;2022-12-07T05:15:10;6.50;;;5.90;;
6864;SDS011;3471;49.678;8.388;2022-12-07T05:17:36;13.70;;;6.23;;
6864;SDS011;3471;49.678;8.388;2022-12-07T05:20:02;10.45;;;6.57;;
6864;SDS011;3471;49.678;8.388;2022-12-07T05:22:28;16.98;;;6.13;;
6864;SDS011;3471;49.678;8.388;2022-12-07T05:24:54;6.60;;;5.18;;
6864;SDS011;3471;49.678;8.388;2022-12-07T05:27:20;9.75;;;6.32;;
6864;SDS011;3471;49.678;8.388;2022-12-07T05:29:46;5.72;;;5.13;;
6864;SDS011;3471;49.678;8.388;2022-12-07T05:32:12;6.17;;;5.00;;
6864;SDS011;3471;49.678;8.388;2022-12-07T05:34:37;5.45;;;4.88;;
6864;SDS011;3471;49.678;8.388;2022-12-07T05:37:03;7.50;;;5.67;;
6864;SDS011;3471;49.678;8.388;2022-12-07T05:39:29;9.00;;;5.40;;
6864;SDS011;3471;49.678;8.388;2022-12-07T05:41:54;7.40;;;5.30;;
6864;SDS011;3471;49.678;8.388;2022-12-07T05:44:39;4.45;;;3.10;;
6864;SDS011;3471;49.678;8.388;2022-12-07T05:47:06;7.47;;;5.40;;
6864;SDS011;3471;49.678;8.388;2022-12-07T05:49:32;6.50;;;5.80;;
6864;SDS011;3471;49.678;8.388;2022-12-07T05:51:57;7.47;;;4.75;;
6864;SDS011;3471;49.678;8.388;2022-12-07T05:54:23;9.67;;;6.30;;
6864;SDS011;3471;49.678;8.388;2022-12-07T05:56:48;7.05;;;4.95;;
6864;SDS011;3471;49.678;8.388;2022-12-07T05:59:15;9.40;;;5.90;;
6864;SDS011;3471;49.678;8.388;2022-12-07T06:01:47;7.63;;;4.82;;
6864;SDS011;3471;49.678;8.388;2022-12-07T06:04:34;8.77;;;5.60;;
6864;SDS011;3471;49.678;8.388;2022-12-07T06:07:02;7.93;;;6.05;;
6864;SDS011;3471;49.678;8.388;2022-12-07T06:09:29;7.88;;;5.68;;
6864;SDS011;3471;49.678;8.388;2022-12-07T06:11:55;8.93;;;4.95;;
6864;SDS011;3471;49.678;8.388;2022-12-07T06:14:40;8.18;;;6.57;;
6864;SDS011;3471;49.678;8.388;2022-12-07T06:17:06;4.90;;;4.47;;
6864;SDS011;3471;49.678;8.388;2022-12-07T06:19:32;5.70;;;4.80;;
6864;SDS011;3471;49.678;8.388;2022-12-07T06:21:58;6.60;;;5.82;;
6864;SDS011;3471;49.678;8.388;2022-12-07T06:24:24;8.05;;;5.72;;
6864;SDS011;3471;49.678;8.388;2022-12-07T06:26:50;8.00;;;5.65;;
6864;SDS011;3471;49.678;8.388;2022-12-07T06:29:16;11.65;;;6.97;;
6864;SDS011;3471;49.678;8.388;2022-12-07T06:31:42;7.15;;;4.85;;
6864;SDS011;3471;49.678;8.388;2022-12-07T06:34:18;9.43;;;5.50;;
6864;SDS011;3471;49.678;8.388;2022-12-07T06:36:47;8.82;;;7.03;;
6864;SDS011;3471;49.678;8.388;2022-12-07T06:39:16;8.13;;;5.78;;
6864;SDS011;3471;49.678;8.388;2022-12-07T06:41:45;9.25;;;5.72;;
6864;SDS011;3471;49.678;8.388;2022-12-07T06:44:11;7.53;;;4.37;;
6864;SDS011;3471;49.678;8.388;2022-12-07T06:46:36;9.25;;;6.28;;
6864;SDS011;3471;49.678;8.388;2022-12-07T06:49:02;5.55;;;4.85;;
6864;SDS011;3471;49.678;8.388;2022-12-07T06:51:29;7.37;;;6.67;;
6864;SDS011;3471;49.678;8.388;2022-12-07T06:53:55;6.13;;;5.10;;
6864;SDS011;3471;49.678;8.388;2022-12-07T06:56:21;16.42;;;7.47;;
6864;SDS011;3471;49.678;8.388;2022-12-07T06:58:47;9.57;;;6.00;;
6864;SDS011;3471;49.678;8.388;2022-12-07T07:01:14;7.97;;;7.18;;
6864;SDS011;3471;49.678;8.388;2022-12-07T07:03:41;7.57;;;5.65;;
6864;SDS011;3471;49.678;8.388;2022-12-07T07:06:07;11.87;;;6.30;;
6864;SDS011;3471;49.678;8.388;2022-12-07T07:08:36;17.80;;;6.50;;
6864;SDS011;3471;49.678;8.388;2022-12-07T07:11:02;14.52;;;7.32;;
6864;SDS011;3471;49.678;8.388;2022-12-07T07:13:28;8.05;;;5.70;;
6864;SDS011;3471;49.678;8.388;2022-12-07T07:15:54;10.90;;;5.97;;
6864;SDS011;3471;49.678;8.388;2022-12-07T07:18:20;6.63;;;5.93;;
6864;SDS011;3471;49.678;8.388;2022-12-07T07:20:45;9.70;;;5.67;;
6864;SDS011;3471;49.678;8.388;2022-12-07T07:23:11;13.45;;;6.20;;
6864;SDS011;3471;49.678;8.388;2022-12-07T07:25:37;8.63;;;5.75;;
6864;SDS011;3471;49.678;8.388;2022-12-07T07:28:03;11.00;;;6.00;;
6864;SDS011;3471;49.678;8.388;2022-12-07T07:30:29;7.20;;;5.97;;
6864;SDS011;3471;49.678;8.388;2022-12-07T07:32:58;8.80;;;7.57;;
6864;SDS011;3471;49.678;8.388;2022-12-07T07:35:25;10.35;;;6.97;;
6864;SDS011;3471;49.678;8.388;2022-12-07T07:37:52;11.38;;;7.43;;
6864;SDS011;3471;49.678;8.388;2022-12-07T07:40:17;14.83;;;7.00;;
6864;SDS011;3471;49.678;8.388;2022-12-07T07:42:43;7.47;;;6.72;;
6864;SDS011;3471;49.678;8.388;2022-12-07T07:45:09;10.70;;;6.87;;
6864;SDS011;3471;49.678;8.388;2022-12-07T07:47:34;5.97;;;5.47;;
6864;SDS011;3471;49.678;8.388;2022-12-07T07:50:00;11.98;;;6.63;;
6864;SDS011;3471;49.678;8.388;2022-12-07T07:52:26;9.23;;;6.27;;
6864;SDS011;3471;49.678;8.388;2022-12-07T07:54:51;12.57;;;6.57;;
6864;SDS011;3471;49.678;8.388;2022-12-07T07:57:17;10.43;;;7.65;;
6864;SDS011;3471;49.678;8.388;2022-12-07T07:59:43;9.77;;;6.65;;
6864;SDS011;3471;49.678;8.388;2022-12-07T08:02:13;12.17;;;7.90;;
6864;SDS011;3471;49.678;8.388;2022-12-07T08:04:43;11.38;;;6.60;;
6864;SDS011;3471;49.678;8.388;2022-12-07T08:07:09;8.05;;;6.10;;
6864;SDS011;3471;49.678;8.388;2022-12-07T08:09:35;12.45;;;7.32;;
6864;SDS011;3471;49.678;8.388;2022-12-07T08:12:01;12.17;;;7.27;;
6864;SDS011;3471;49.678;8.388;2022-12-07T08:14:27;6.50;;;5.68;;
6864;SDS011;3471;49.678;8.388;2022-12-07T08:16:53;10.68;;;7.00;;
6864;SDS011;3471;49.678;8.388;2022-12-07T08:19:19;8.53;;;6.90;;
6864;SDS011;3471;49.678;8.388;2022-12-07T08:21:45;10.40;;;8.50;;
6864;SDS011;3471;49.678;8.388;2022-12-07T08:24:10;7.70;;;5.87;;
6864;SDS011;3471;49.678;8.388;2022-12-07T08:26:36;13.47;;;7.63;;
6864;SDS011;3471;49.678;8.388;2022-12-07T08:29:01;9.27;;;6.53;;
6864;SDS011;3471;49.678;8.388;2022-12-07T08:31:27;11.60;;;6.50;;
6864;SDS011;3471;49.678;8.388;2022-12-07T08:33:53;12.10;;;8.40;;
6864;SDS011;3471;49.678;8.388;2022-12-07T08:36:19;9.70;;;7.95;;
6864;SDS011;3471;49.678;8.388;2022-12-07T08:38:46;10.10;;;7.05;;
6864;SDS011;3471;49.678;8.388;2022-12-07T08:41:12;18.92;;;8.95;;
6864;SDS011;3471;49.678;8.388;2022-12-07T08:43:37;10.33;;;7.30;;
6864;SDS011;3471;49.678;8.388;2022-12-07T08:46:11;10.23;;;6.40;;
6864;SDS011;3471;49.678;8.388;2022-12-07T08:48:53;13.93;;;8.27;;
6864;SDS011;3471;49.678;8.388;2022-12-07T08:51:34;9.68;;;6.97;;
6864;SDS011;3471;49.678;8.388;2022-12-07T08:54:01;14.27;;;8.20;;
6864;SDS011;3471;49.678;8.388;2022-12-07T08:56:30;7.45;;;6.63;;
6864;SDS011;3471;49.678;8.388;2022-12-07T08:58:56;9.75;;;6.82;;
6864;SDS011;3471;49.678;8.388;2022-12-07T09:01:23;16.10;;;8.13;;
6864;SDS011;3471;49.678;8.388;2022-12-07T09:03:48;9.40;;;8.07;;
6864;SDS011;3471;49.678;8.388;2022-12-07T09:06:14;12.85;;;8.48;;
6864;SDS011;3471;49.678;8.388;2022-12-07T09:08:40;10.27;;;8.43;;
6864;SDS011;3471;49.678;8.388;2022-12-07T09:11:10;10.25;;;7.15;;
6864;SDS011;3471;49.678;8.388;2022-12-07T09:13:36;8.50;;;6.53;;
6864;SDS011;3471;49.678;8.388;2022-12-07T09:16:01;10.30;;;8.07;;
6864;SDS011;3471;49.678;8.388;2022-12-07T09:18:27;12.35;;;8.52;;
6864;SDS011;3471;49.678;8.388;2022-12-07T09:20:52;14.13;;;9.03;;
6864;SDS011;3471;49.678;8.388;2022-12-07T09:23:18;9.20;;;8.13;;
6864;SDS011;3471;49.678;8.388;2022-12-07T09:25:43;10.47;;;8.60;;
6864;SDS011;3471;49.678;8.388;2022-12-07T09:28:09;10.17;;;7.20;;
6864;SDS011;3471;49.678;8.388;2022-12-07T09:30:35;9.40;;;8.18;;
6864;SDS011;3471;49.678;8.388;2022-12-07T09:33:00;7.67;;;6.53;;
6864;SDS011;3471;49.678;8.388;2022-12-07T09:35:26;10.48;;;7.75;;
6864;SDS011;3471;49.678;8.388;2022-12-07T09:37:52;12.18;;;8.40;;
6864;SDS011;3471;49.678;8.388;2022-12-07T09:40:19;11.13;;;7.30;;
6864;SDS011;3471;49.678;8.388;2022-12-07T09:42:47;11.10;;;7.07;;
6864;SDS011;3471;49.678;8.388;2022-12-07T09:45:27;11.68;;;8.52;;
6864;SDS011;3471;49.678;8.388;2022-12-07T09:48:00;15.50;;;9.40;;
6864;SDS011;3471;49.678;8.388;2022-12-07T09:50:28;10.23;;;7.80;;
6864;SDS011;3471;49.678;8.388;2022-12-07T09:52:54;7.78;;;5.32;;
6864;SDS011;3471;49.678;8.388;2022-12-07T09:55:31;8.20;;;7.00;;
6864;SDS011;3471;49.678;8.388;2022-12-07T09:57:58;17.52;;;8.55;;
6864;SDS011;3471;49.678;8.388;2022-12-07T10:00:24;20.10;;;7.63;;
6864;SDS011;3471;49.678;8.388;2022-12-07T10:02:55;22.83;;;7.07;;
6864;SDS011;3471;49.678;8.388;2022-12-07T10:05:28;10.00;;;7.35;;
6864;SDS011;3471;49.678;8.388;2022-12-07T10:07:58;11.23;;;8.77;;
6864;SDS011;3471;49.678;8.388;2022-12-07T10:10:25;10.80;;;7.30;;
6864;SDS011;3471;49.678;8.388;2022-12-07T10:13:08;11.50;;;6.47;;
6864;SDS011;3471;49.678;8.388;2022-12-07T10:18:31;5.35;;;4.40;;
6864;SDS011;3471;49.678;8.388;2022-12-07T10:21:02;6.50;;;5.50;;
6864;SDS011;3471;49.678;8.388;2022-12-07T10:23:37;6.95;;;4.20;;
6864;SDS011;3471;49.678;8.388;2022-12-07T10:28:52;16.73;;;5.28;;
6864;SDS011;3471;49.678;8.388;2022-12-07T10:31:19;6.20;;;5.32;;
6864;SDS011;3471;49.678;8.388;2022-12-07T10:36:21;6.20;;;5.38;;
6864;SDS011;3471;49.678;8.388;2022-12-07T10:38:59;5.25;;;3.90;;
6864;SDS011;3471;49.678;8.388;2022-12-07T10:41:55;9.68;;;5.15;;
6864;SDS011;3471;49.678;8.388;2022-12-07T10:44:23;6.60;;;4.05;;
6864;SDS011;3471;49.678;8.388;2022-12-07T10:46:57;10.70;;;5.63;;
6864;SDS011;3471;49.678;8.388;2022-12-07T10:54:42;5.68;;;2.70;;
6864;SDS011;3471;49.678;8.388;2022-12-07T11:02:32;6.72;;;2.63;;
6864;SDS011;3471;49.678;8.388;2022-12-07T11:05:31;3.05;;;2.75;;
6864;SDS011;3471;49.678;8.388;2022-12-07T11:22:30;1.90;;;1.55;;
6864;SDS011;3471;49.678;8.388;2022-12-07T11:28:13;3.80;;;2.60;;
6864;SDS011;3471;49.678;8.388;2022-12-07T11:35:41;4.40;;;2.20;;
6864;SDS011;3471;49.678;8.388;2022-12-07T11:38:31;2.60;;;2.40;;
6864;SDS011;3471;49.678;8.388;2022-12-07T11:41:15;2.30;;;1.60;;
6864;SDS011;3471;49.678;8.388;2022-12-07T11:46:40;7.90;;;2.63;;
6864;SDS011;3471;49.678;8.388;2022-12-07T11:52:04;5.20;;;2.65;;
6864;SDS011;3471;49.678;8.388;2022-12-07T11:54:36;5.90;;;2.83;;
6864;SDS011;3471;49.678;8.388;2022-12-07T11:57:10;3.30;;;2.50;;
6864;SDS011;3471;49.678;8.388;2022-12-07T11:59:45;3.60;;;2.03;;
6864;SDS011;3471;49.678;8.388;2022-12-07T12:02:24;6.40;;;2.40;;
6864;SDS011;3471;49.678;8.388;2022-12-07T12:08:00;2.15;;;1.70;;
6864;SDS011;3471;49.678;8.388;2022-12-07T12:13:43;3.60;;;1.90;;
6864;SDS011;3471;49.678;8.388;2022-12-07T12:22:10;3.30;;;2.30;;
6864;SDS011;3471;49.678;8.388;2022-12-07T12:24:45;3.60;;;2.22;;
6864;SDS011;3471;49.678;8.388;2022-12-07T12:27:26;2.00;;;1.48;;
6864;SDS011;3471;49.678;8.388;2022-12-07T12:29:57;3.83;;;2.70;;
6864;SDS011;3471;49.678;8.388;2022-12-07T12:50:30;10.20;;;2.60;;
6864;SDS011;3471;49.678;8.388;2022-12-07T12:56:34;2.10;;;1.40;;
6864;SDS011;3471;49.678;8.388;2022-12-07T12:58:42;9.23;;;1.80;;
6864;SDS011;3471;49.678;8.388;2022-12-07T13:03:53;8.00;;;1.90;;
6864;SDS011;3471;49.678;8.388;2022-12-07T13:08:49;14.43;;;2.28;;
6864;SDS011;3471;49.678;8.388;2022-12-07T13:11:19;3.10;;;1.73;;
6864;SDS011;3471;49.678;8.388;2022-12-07T13:13:56;2.28;;;1.55;;
6864;SDS011;3471;49.678;8.388;2022-12-07T13:16:57;2.75;;;1.90;;
6864;SDS011;3471;49.678;8.388;2022-12-07T13:19:33;5.30;;;2.33;;
6864;SDS011;3471;49.678;8.388;2022-12-07T13:24:56;7.20;;;1.92;;
6864;SDS011;3471;49.678;8.388;2022-12-07T13:27:24;2.90;;;1.60;;
6864;SDS011;3471;49.678;8.388;2022-12-07T13:29:51;1.67;;;1.25;;
6864;SDS011;3471;49.678;8.388;2022-12-07T13:32:24;11.60;;;3.00;;
6864;SDS011;3471;49.678;8.388;2022-12-07T13:34:52;4.30;;;2.00;;
6864;SDS011;3471;49.678;8.388;2022-12-07T13:39:46;3.80;;;2.00;;
6864;SDS011;3471;49.678;8.388;2022-12-07T13:42:27;2.92;;;2.72;;
6864;SDS011;3471;49.678;8.388;2022-12-07T13:44:55;3.53;;;1.80;;
6864;SDS011;3471;49.678;8.388;2022-12-07T13:49:55;8.20;;;1.83;;
6864;SDS011;3471;49.678;8.388;2022-12-07T13:54:49;2.45;;;1.70;;
6864;SDS011;3471;49.678;8.388;2022-12-07T13:57:38;2.08;;;1.52;;
6864;SDS011;3471;49.678;8.388;2022-12-07T14:00:04;2.47;;;1.88;;
6864;SDS011;3471;49.678;8.388;2022-12-07T14:02:53;2.90;;;1.80;;
6864;SDS011;3471;49.678;8.388;2022-12-07T14:05:27;1.90;;;1.48;;
6864;SDS011;3471;49.678;8.388;2022-12-07T14:07:55;2.20;;;1.30;;
6864;SDS011;3471;49.678;8.388;2022-12-07T14:10:29;3.30;;;1.97;;
6864;SDS011;3471;49.678;8.388;2022-12-07T14:12:57;3.80;;;1.90;;
6864;SDS011;3471;49.678;8.388;2022-12-07T14:15:25;2.10;;;1.90;;
6864;SDS011;3471;49.678;8.388;2022-12-07T14:17:54;1.80;;;0.90;;
6864;SDS011;3471;49.678;8.388;2022-12-07T14:20:29;2.10;;;1.50;;
6864;SDS011;3471;49.678;8.388;2022-12-07T14:22:59;3.70;;;2.37;;
6864;SDS011;3471;49.678;8.388;2022-12-07T14:25:33;6.70;;;2.60;;
6864;SDS011;3471;49.678;8.388;2022-12-07T14:28:27;3.70;;;2.67;;
6864;SDS011;3471;49.678;8.388;2022-12-07T14:30:57;2.00;;;1.45;;
6864;SDS011;3471;49.678;8.388;2022-12-07T14:33:24;3.13;;;1.50;;
6864;SDS011;3471;49.678;8.388;2022-12-07T14:35:51;3.70;;;2.30;;
6864;SDS011;3471;49.678;8.388;2022-12-07T14:38:21;2.90;;;2.30;;
6864;SDS011;3471;49.678;8.388;2022-12-07T14:40:47;1.60;;;1.13;;
6864;SDS011;3471;49.678;8.388;2022-12-07T14:43:14;2.55;;;1.88;;
6864;SDS011;3471;49.678;8.388;2022-12-07T14:45:41;8.80;;;2.53;;
6864;SDS011;3471;49.678;8.388;2022-12-07T14:48:15;2.70;;;2.00;;
6864;SDS011;3471;49.678;8.388;2022-12-07T14:50:42;2.60;;;2.08;;
6864;SDS011;3471;49.678;8.388;2022-12-07T14:53:14;3.47;;;2.35;;
6864;SDS011;3471;49.678;8.388;2022-12-07T14:55:41;5.88;;;1.63;;
6864;SDS011;3471;49.678;8.388;2022-12-07T14:58:16;9.20;;;2.37;;
6864;SDS011;3471;49.678;8.388;2022-12-07T15:00:43;5.60;;;2.40;;
6864;SDS011;3471;49.678;8.388;2022-12-07T15:03:09;2.33;;;1.80;;
6864;SDS011;3471;49.678;8.388;2022-12-07T15:05:35;1.90;;;1.50;;
6864;SDS011;3471;49.678;8.388;2022-12-07T15:08:02;2.53;;;1.92;;
6864;SDS011;3471;49.678;8.388;2022-12-07T15:10:29;2.95;;;1.60;;
6864;SDS011;3471;49.678;8.388;2022-12-07T15:12:57;2.50;;;1.50;;
6864;SDS011;3471;49.678;8.388;2022-12-07T15:15:43;2.30;;;1.90;;
6864;SDS011;3471;49.678;8.388;2022-12-07T15:18:09;3.60;;;2.30;;
6864;SDS011;3471;49.678;8.388;2022-12-07T15:20:34;6.47;;;2.70;;
6864;SDS011;3471;49.678;8.388;2022-12-07T15:23:00;5.17;;;1.67;;
6864;SDS011;3471;49.678;8.388;2022-12-07T15:25:25;6.20;;;1.80;;
6864;SDS011;3471;49.678;8.388;2022-12-07T15:27:51;4.78;;;1.88;;
6864;SDS011;3471;49.678;8.388;2022-12-07T15:30:16;2.60;;;1.60;;
6864;SDS011;3471;49.678;8.388;2022-12-07T15:32:42;4.82;;;1.58;;
6864;SDS011;3471;49.678;8.388;2022-12-07T15:35:08;9.40;;;2.70;;
6864;SDS011;3471;49.678;8.388;2022-12-07T15:37:33;2.10;;;1.67;;
6864;SDS011;3471;49.678;8.388;2022-12-07T15:39:59;1.88;;;1.45;;
6864;SDS011;3471;49.678;8.388;2022-12-07T15:42:24;2.37;;;1.63;;
6864;SDS011;3471;49.678;8.388;2022-12-07T15:44:50;1.65;;;1.23;;
6864;SDS011;3471;49.678;8.388;2022-12-07T15:47:34;7.90;;;1.70;;
6864;SDS011;3471;49.678;8.388;2022-12-07T15:50:06;2.28;;;2.08;;
6864;SDS011;3471;49.678;8.388;2022-12-07T15:52:33;3.47;;;1.90;;
6864;SDS011;3471;49.678;8.388;2022-12-07T15:54:59;2.70;;;1.70;;
6864;SDS011;3471;49.678;8.388;2022-12-07T15:57:25;6.57;;;2.00;;
6864;SDS011;3471;49.678;8.388;2022-12-07T15:59:52;3.88;;;2.80;;
6864;SDS011;3471;49.678;8.388;2022-12-07T16:02:18;3.67;;;2.10;;
6864;SDS011;3471;49.678;8.388;2022-12-07T16:04:44;9.25;;;2.92;;
6864;SDS011;3471;49.678;8.388;2022-12-07T16:07:10;3.30;;;1.90;;
6864;SDS011;3471;49.678;8.388;2022-12-07T16:09:36;2.25;;;1.35;;
6864;SDS011;3471;49.678;8.388;2022-12-07T16:12:02;4.30;;;2.72;;
6864;SDS011;3471;49.678;8.388;2022-12-07T16:14:28;7.30;;;1.97;;
6864;SDS011;3471;49.678;8.388;2022-12-07T16:16:54;24.85;;;9.10;;
6864;SDS011;3471;49.678;8.388;2022-12-07T16:19:20;10.07;;;4.90;;
6864;SDS011;3471;49.678;8.388;2022-12-07T16:21:46;3.78;;;2.83;;
6864;SDS011;3471;49.678;8.388;2022-12-07T16:24:11;5.70;;;4.00;;
6864;SDS011;3471;49.678;8.388;2022-12-07T16:26:40;15.57;;;3.22;;
6864;SDS011;3471;49.678;8.388;2022-12-07T16:29:05;3.67;;;3.35;;
6864;SDS011;3471;49.678;8.388;2022-12-07T16:31:31;8.10;;;5.00;;
6864;SDS011;3471;49.678;8.388;2022-12-07T16:33:57;9.68;;;7.57;;
6864;SDS011;3471;49.678;8.388;2022-12-07T16:36:23;13.55;;;7.35;;
6864;SDS011;3471;49.678;8.388;2022-12-07T16:38:51;8.05;;;7.25;;
6864;SDS011;3471;49.678;8.388;2022-12-07T16:41:17;6.50;;;4.70;;
6864;SDS011;3471;49.678;8.388;2022-12-07T16:43:43;5.32;;;4.47;;
6864;SDS011;3471;49.678;8.388;2022-12-07T16:46:08;7.30;;;5.00;;
6864;SDS011;3471;49.678;8.388;2022-12-07T16:48:37;7.03;;;4.57;;
6864;SDS011;3471;49.678;8.388;2022-12-07T16:51:05;7.50;;;5.68;;
6864;SDS011;3471;49.678;8.388;2022-12-07T16:53:35;5.57;;;4.55;;
6864;SDS011;3471;49.678;8.388;2022-12-07T16:56:02;13.63;;;5.50;;
6864;SDS011;3471;49.678;8.388;2022-12-07T16:58:28;6.60;;;6.00;;
6864;SDS011;3471;49.678;8.388;2022-12-07T17:00:54;6.22;;;4.30;;
6864;SDS011;3471;49.678;8.388;2022-12-07T17:03:19;7.20;;;5.43;;
6864;SDS011;3471;49.678;8.388;2022-12-07T17:05:45;9.93;;;4.03;;
6864;SDS011;3471;49.678;8.388;2022-12-07T17:08:12;8.68;;;6.03;;
6864;SDS011;3471;49.678;8.388;2022-12-07T17:10:39;21.33;;;6.05;;
6864;SDS011;3471;49.678;8.388;2022-12-07T17:13:06;10.32;;;7.45;;
6864;SDS011;3471;49.678;8.388;2022-12-07T17:16:09;13.25;;;8.23;;
6864;SDS011;3471;49.678;8.388;2022-12-07T17:18:35;15.07;;;10.05;;
6864;SDS011;3471;49.678;8.388;2022-12-07T17:21:01;19.85;;;10.68;;
6864;SDS011;3471;49.678;8.388;2022-12-07T17:23:31;17.08;;;8.40;;
6864;SDS011;3471;49.678;8.388;2022-12-07T17:26:04;8.60;;;7.80;;
6864;SDS011;3471;49.678;8.388;2022-12-07T17:28:35;15.23;;;11.00;;
6864;SDS011;3471;49.678;8.388;2022-12-07T17:31:03;18.67;;;12.90;;
6864;SDS011;3471;49.678;8.388;2022-12-07T17:33:31;19.67;;;10.13;;